sensor_id;sensor_type;location;lat;lon;timestamp;pressure;altitude;pressure_sealevel;temperature;humidity
77889;BME280;67082;41.704;44.768;2024-03-29T00:02:01;96050.53;;;11.14;47.35
77889;BME280;67082;41.704;44.768;2024-03-29T00:04:28;96046.75;;;11.08;47.98
77889;BME280;67082;41.704;44.768;2024-03-29T00:06:56;96052.44;;;10.92;48.29
77889;BME280;67082;41.704;44.768;2024-03-29T00:09:23;96044.66;;;11.12;47.79
77889;BME280;67082;41.704;44.768;2024-03-29T00:11:50;96047.41;;;11.25;47.54
77889;BME280;67082;41.704;44.768;2024-03-29T00:14:17;96039.66;;;11.20;47.71
77889;BME280;67082;41.704;44.768;2024-03-29T00:16:44;96039.84;;;11.25;47.30
77889;BME280;67082;41.704;44.768;2024-03-29T00:19:11;96033.72;;;11.30;47.12
77889;BME280;67082;41.704;44.768;2024-03-29T00:21:38;96041.63;;;11.19;47.40
77889;BME280;67082;41.704;44.768;2024-03-29T00:24:06;96033.28;;;11.32;47.24
77889;BME280;67082;41.704;44.768;2024-03-29T00:26:33;96036.59;;;11.39;47.08
77889;BME280;67082;41.704;44.768;2024-03-29T00:29:00;96034.81;;;11.45;47.18
77889;BME280;67082;41.704;44.768;2024-03-29T00:31:27;96042.56;;;11.50;46.83
77889;BME280;67082;41.704;44.768;2024-03-29T00:33:56;96038.47;;;11.42;47.20
77889;BME280;67082;41.704;44.768;2024-03-29T00:36:23;96033.59;;;11.46;46.98
77889;BME280;67082;41.704;44.768;2024-03-29T00:38:50;96037.47;;;11.49;47.43
77889;BME280;67082;41.704;44.768;2024-03-29T00:41:17;96034.81;;;11.45;46.80
77889;BME280;67082;41.704;44.768;2024-03-29T00:44:10;96034.47;;;11.43;47.22
77889;BME280;67082;41.704;44.768;2024-03-29T00:46:37;96040.38;;;11.45;47.55
77889;BME280;67082;41.704;44.768;2024-03-29T00:49:04;96035.38;;;11.40;47.24
77889;BME280;67082;41.704;44.768;2024-03-29T00:51:32;96029.97;;;11.37;47.46
77889;BME280;67082;41.704;44.768;2024-03-29T00:53:59;96035.94;;;11.35;47.12
77889;BME280;67082;41.704;44.768;2024-03-29T00:56:26;96030.09;;;11.33;47.40
77889;BME280;67082;41.704;44.768;2024-03-29T00:58:54;96030.53;;;11.32;48.37
77889;BME280;67082;41.704;44.768;2024-03-29T01:01:24;96037.75;;;11.29;47.95
77889;BME280;67082;41.704;44.768;2024-03-29T01:03:51;96029.72;;;11.31;48.19
77889;BME280;67082;41.704;44.768;2024-03-29T01:06:19;96040.41;;;11.20;48.40
77889;BME280;67082;41.704;44.768;2024-03-29T01:08:47;96040.22;;;11.02;48.30
77889;BME280;67082;41.704;44.768;2024-03-29T01:11:14;96043.47;;;10.76;49.06
77889;BME280;67082;41.704;44.768;2024-03-29T01:13:42;96034.59;;;10.68;48.37
77889;BME280;67082;41.704;44.768;2024-03-29T01:16:09;96039.28;;;10.84;48.49
77889;BME280;67082;41.704;44.768;2024-03-29T01:18:37;96040.47;;;10.83;48.39
77889;BME280;67082;41.704;44.768;2024-03-29T01:21:04;96034.38;;;10.88;47.82
77889;BME280;67082;41.704;44.768;2024-03-29T01:23:31;96037.69;;;10.95;48.20
77889;BME280;67082;41.704;44.768;2024-03-29T01:25:58;96041.13;;;10.99;48.26
77889;BME280;67082;41.704;44.768;2024-03-29T01:28:26;96041.69;;;10.94;47.91
77889;BME280;67082;41.704;44.768;2024-03-29T01:30:55;96043.78;;;11.03;47.86
77889;BME280;67082;41.704;44.768;2024-03-29T01:33:25;96046.31;;;10.97;48.62
77889;BME280;67082;41.704;44.768;2024-03-29T01:35:53;96043.13;;;10.99;48.40
77889;BME280;67082;41.704;44.768;2024-03-29T01:38:20;96051.56;;;10.95;48.53
77889;BME280;67082;41.704;44.768;2024-03-29T01:40:49;96043.91;;;10.99;48.36
77889;BME280;67082;41.704;44.768;2024-03-29T01:43:17;96048.47;;;10.93;48.49
77889;BME280;67082;41.704;44.768;2024-03-29T01:45:48;96048.97;;;11.01;47.88
77889;BME280;67082;41.704;44.768;2024-03-29T01:48:17;96055.56;;;10.82;48.67
77889;BME280;67082;41.704;44.768;2024-03-29T01:50:44;96060.84;;;10.89;49.14
77889;BME280;67082;41.704;44.768;2024-03-29T01:53:12;96061.84;;;10.57;49.44
77889;BME280;67082;41.704;44.768;2024-03-29T01:55:41;96061.75;;;10.73;48.88
77889;BME280;67082;41.704;44.768;2024-03-29T01:58:09;96059.22;;;10.79;48.24
77889;BME280;67082;41.704;44.768;2024-03-29T02:00:58;96064.22;;;10.72;48.14
77889;BME280;67082;41.704;44.768;2024-03-29T02:03:27;96066.63;;;10.57;48.36
77889;BME280;67082;41.704;44.768;2024-03-29T02:05:54;96057.66;;;10.53;48.48
77889;BME280;67082;41.704;44.768;2024-03-29T02:08:24;96063.41;;;10.46;48.45
77889;BME280;67082;41.704;44.768;2024-03-29T02:10:51;96070.03;;;10.36;48.72
77889;BME280;67082;41.704;44.768;2024-03-29T02:13:19;96066.28;;;10.30;48.53
77889;BME280;67082;41.704;44.768;2024-03-29T02:15:48;96067.94;;;10.28;48.67
77889;BME280;67082;41.704;44.768;2024-03-29T02:18:16;96065.91;;;10.16;48.39
77889;BME280;67082;41.704;44.768;2024-03-29T02:20:43;96061.34;;;10.09;49.52
77889;BME280;67082;41.704;44.768;2024-03-29T02:23:13;96067.25;;;9.95;49.21
77889;BME280;67082;41.704;44.768;2024-03-29T02:25:41;96071.47;;;9.87;49.63
77889;BME280;67082;41.704;44.768;2024-03-29T02:28:08;96075.34;;;9.90;49.16
77889;BME280;67082;41.704;44.768;2024-03-29T02:30:35;96080.66;;;9.97;50.08
77889;BME280;67082;41.704;44.768;2024-03-29T02:33:02;96083.19;;;9.91;50.04
77889;BME280;67082;41.704;44.768;2024-03-29T02:35:29;96088.44;;;9.73;49.98
77889;BME280;67082;41.704;44.768;2024-03-29T02:37:57;96078.69;;;9.69;49.82
77889;BME280;67082;41.704;44.768;2024-03-29T02:40:24;96086.97;;;9.69;49.58
77889;BME280;67082;41.704;44.768;2024-03-29T02:42:52;96090.66;;;9.78;49.51
77889;BME280;67082;41.704;44.768;2024-03-29T02:45:18;96089.91;;;9.78;49.91
77889;BME280;67082;41.704;44.768;2024-03-29T02:47:46;96080.38;;;9.79;49.30
77889;BME280;67082;41.704;44.768;2024-03-29T02:50:14;96082.16;;;9.85;50.33
77889;BME280;67082;41.704;44.768;2024-03-29T02:52:43;96076.41;;;9.80;50.06
77889;BME280;67082;41.704;44.768;2024-03-29T02:55:10;96078.84;;;9.78;50.21
77889;BME280;67082;41.704;44.768;2024-03-29T02:57:40;96077.25;;;9.77;50.28
77889;BME280;67082;41.704;44.768;2024-03-29T03:00:07;96089.22;;;9.74;50.49
77889;BME280;67082;41.704;44.768;2024-03-29T03:02:40;96091.78;;;9.81;50.60
77889;BME280;67082;41.704;44.768;2024-03-29T03:05:07;96083.28;;;9.88;50.34
77889;BME280;67082;41.704;44.768;2024-03-29T03:07:35;96076.00;;;9.94;50.36
77889;BME280;67082;41.704;44.768;2024-03-29T03:10:20;96090.03;;;9.87;50.57
77889;BME280;67082;41.704;44.768;2024-03-29T03:13:06;96093.69;;;9.84;51.71
77889;BME280;67082;41.704;44.768;2024-03-29T03:15:33;96098.53;;;9.80;51.34
77889;BME280;67082;41.704;44.768;2024-03-29T03:18:00;96099.88;;;9.88;51.97
77889;BME280;67082;41.704;44.768;2024-03-29T03:20:27;96106.31;;;9.85;51.47
77889;BME280;67082;41.704;44.768;2024-03-29T03:22:57;96103.88;;;9.58;51.98
77889;BME280;67082;41.704;44.768;2024-03-29T03:25:27;96099.28;;;9.52;51.30
77889;BME280;67082;41.704;44.768;2024-03-29T03:27:55;96092.34;;;9.60;51.50
77889;BME280;67082;41.704;44.768;2024-03-29T03:30:22;96101.75;;;9.78;50.83
77889;BME280;67082;41.704;44.768;2024-03-29T03:32:49;96114.25;;;9.83;51.47
77889;BME280;67082;41.704;44.768;2024-03-29T03:35:16;96097.66;;;9.83;51.14
77889;BME280;67082;41.704;44.768;2024-03-29T03:37:43;96097.00;;;9.79;51.43
77889;BME280;67082;41.704;44.768;2024-03-29T03:40:10;96094.03;;;9.86;51.27
77889;BME280;67082;41.704;44.768;2024-03-29T03:42:37;96113.88;;;9.97;51.83
77889;BME280;67082;41.704;44.768;2024-03-29T03:45:04;96116.06;;;10.05;51.53
77889;BME280;67082;41.704;44.768;2024-03-29T03:47:32;96115.94;;;10.09;50.19
77889;BME280;67082;41.704;44.768;2024-03-29T03:49:59;96119.75;;;10.15;51.27
77889;BME280;67082;41.704;44.768;2024-03-29T03:52:26;96116.00;;;10.21;51.05
77889;BME280;67082;41.704;44.768;2024-03-29T03:54:53;96115.22;;;10.21;50.42
77889;BME280;67082;41.704;44.768;2024-03-29T03:57:23;96116.66;;;10.25;50.18
77889;BME280;67082;41.704;44.768;2024-03-29T03:59:50;96115.53;;;10.23;50.47
77889;BME280;67082;41.704;44.768;2024-03-29T04:02:17;96114.91;;;10.31;50.27
77889;BME280;67082;41.704;44.768;2024-03-29T04:04:49;96111.81;;;10.29;50.04
77889;BME280;67082;41.704;44.768;2024-03-29T04:07:16;96116.13;;;10.30;50.18
77889;BME280;67082;41.704;44.768;2024-03-29T04:09:43;96110.59;;;10.30;49.88
77889;BME280;67082;41.704;44.768;2024-03-29T04:12:11;96113.38;;;10.43;50.96
77889;BME280;67082;41.704;44.768;2024-03-29T04:14:37;96106.84;;;10.37;49.63
77889;BME280;67082;41.704;44.768;2024-03-29T04:17:05;96114.19;;;10.15;50.04
77889;BME280;67082;41.704;44.768;2024-03-29T04:19:32;96114.41;;;10.08;49.88
77889;BME280;67082;41.704;44.768;2024-03-29T04:21:59;96108.81;;;10.24;49.52
77889;BME280;67082;41.704;44.768;2024-03-29T04:24:28;96115.38;;;10.42;49.26
77889;BME280;67082;41.704;44.768;2024-03-29T04:26:55;96114.25;;;10.40;49.44
77889;BME280;67082;41.704;44.768;2024-03-29T04:29:22;96116.59;;;10.41;49.27
77889;BME280;67082;41.704;44.768;2024-03-29T04:31:49;96115.16;;;10.37;49.31
77889;BME280;67082;41.704;44.768;2024-03-29T04:34:16;96114.59;;;10.42;48.94
77889;BME280;67082;41.704;44.768;2024-03-29T04:36:43;96117.16;;;10.49;49.36
77889;BME280;67082;41.704;44.768;2024-03-29T04:39:12;96107.28;;;10.35;49.44
77889;BME280;67082;41.704;44.768;2024-03-29T04:41:39;96103.28;;;10.36;48.93
77889;BME280;67082;41.704;44.768;2024-03-29T04:44:06;96099.66;;;10.39;48.86
77889;BME280;67082;41.704;44.768;2024-03-29T04:46:35;96093.00;;;10.37;48.54
77889;BME280;67082;41.704;44.768;2024-03-29T04:49:01;96099.19;;;10.41;48.24
77889;BME280;67082;41.704;44.768;2024-03-29T04:51:29;96101.63;;;10.39;48.41
77889;BME280;67082;41.704;44.768;2024-03-29T04:53:55;96112.91;;;10.32;48.15
77889;BME280;67082;41.704;44.768;2024-03-29T04:56:23;96106.94;;;10.46;48.67
77889;BME280;67082;41.704;44.768;2024-03-29T04:58:50;96109.66;;;10.62;47.72
77889;BME280;67082;41.704;44.768;2024-03-29T05:01:18;96118.97;;;10.68;48.03
77889;BME280;67082;41.704;44.768;2024-03-29T05:03:44;96113.88;;;10.78;47.68
77889;BME280;67082;41.704;44.768;2024-03-29T05:06:12;96114.44;;;10.86;47.54
77889;BME280;67082;41.704;44.768;2024-03-29T05:08:38;96117.31;;;10.95;47.59
77889;BME280;67082;41.704;44.768;2024-03-29T05:11:06;96110.53;;;11.08;47.20
77889;BME280;67082;41.704;44.768;2024-03-29T05:13:34;96111.09;;;11.16;47.00
77889;BME280;67082;41.704;44.768;2024-03-29T05:16:01;96106.34;;;11.16;46.71
77889;BME280;67082;41.704;44.768;2024-03-29T05:18:28;96108.44;;;11.25;46.51
77889;BME280;67082;41.704;44.768;2024-03-29T05:20:58;96112.06;;;11.34;46.46
77889;BME280;67082;41.704;44.768;2024-03-29T05:23:25;96118.28;;;11.38;46.74
77889;BME280;67082;41.704;44.768;2024-03-29T05:25:52;96115.09;;;11.27;47.23
77889;BME280;67082;41.704;44.768;2024-03-29T05:28:19;96116.19;;;11.30;47.14
77889;BME280;67082;41.704;44.768;2024-03-29T05:30:47;96111.84;;;11.41;47.27
77889;BME280;67082;41.704;44.768;2024-03-29T05:33:13;96117.81;;;11.52;47.22
77889;BME280;67082;41.704;44.768;2024-03-29T05:35:41;96121.16;;;11.47;47.04
77889;BME280;67082;41.704;44.768;2024-03-29T05:38:10;96123.25;;;11.43;46.69
77889;BME280;67082;41.704;44.768;2024-03-29T05:40:37;96112.38;;;11.61;46.01
77889;BME280;67082;41.704;44.768;2024-03-29T05:43:05;96125.25;;;11.68;45.82
77889;BME280;67082;41.704;44.768;2024-03-29T05:45:33;96112.31;;;11.86;45.52
77889;BME280;67082;41.704;44.768;2024-03-29T05:48:00;96112.50;;;11.92;45.42
77889;BME280;67082;41.704;44.768;2024-03-29T05:50:27;96121.44;;;12.08;45.63
77889;BME280;67082;41.704;44.768;2024-03-29T05:52:54;96112.41;;;12.17;44.76
77889;BME280;67082;41.704;44.768;2024-03-29T05:55:23;96114.97;;;12.33;44.55
77889;BME280;67082;41.704;44.768;2024-03-29T05:57:50;96107.03;;;12.22;44.22
77889;BME280;67082;41.704;44.768;2024-03-29T06:00:20;96103.63;;;12.40;44.30
77889;BME280;67082;41.704;44.768;2024-03-29T06:02:46;96097.13;;;12.43;44.87
77889;BME280;67082;41.704;44.768;2024-03-29T06:05:15;96099.19;;;12.51;43.90
77889;BME280;67082;41.704;44.768;2024-03-29T06:07:42;96086.78;;;12.65;43.48
77889;BME280;67082;41.704;44.768;2024-03-29T06:10:09;96090.66;;;12.67;43.42
77889;BME280;67082;41.704;44.768;2024-03-29T06:12:37;96084.81;;;12.74;43.10
77889;BME280;67082;41.704;44.768;2024-03-29T06:15:06;96082.09;;;12.92;42.97
77889;BME280;67082;41.704;44.768;2024-03-29T06:17:51;96077.84;;;13.00;42.87
77889;BME280;67082;41.704;44.768;2024-03-29T06:20:19;96081.25;;;13.04;42.21
77889;BME280;67082;41.704;44.768;2024-03-29T06:22:46;96082.56;;;12.91;42.36
77889;BME280;67082;41.704;44.768;2024-03-29T06:25:13;96082.34;;;13.07;42.39
77889;BME280;67082;41.704;44.768;2024-03-29T06:27:40;96082.25;;;13.19;42.09
77889;BME280;67082;41.704;44.768;2024-03-29T06:30:08;96083.06;;;13.38;41.77
77889;BME280;67082;41.704;44.768;2024-03-29T06:32:35;96078.91;;;13.42;42.43
77889;BME280;67082;41.704;44.768;2024-03-29T06:35:04;96061.78;;;13.62;41.41
77889;BME280;67082;41.704;44.768;2024-03-29T06:37:31;96064.22;;;13.60;41.36
77889;BME280;67082;41.704;44.768;2024-03-29T06:39:58;96047.84;;;13.80;41.47
77889;BME280;67082;41.704;44.768;2024-03-29T06:42:32;96051.44;;;13.80;40.05
77889;BME280;67082;41.704;44.768;2024-03-29T06:45:01;96035.94;;;13.79;40.50
77889;BME280;67082;41.704;44.768;2024-03-29T06:47:35;96029.75;;;13.75;40.07
77889;BME280;67082;41.704;44.768;2024-03-29T06:50:13;96032.53;;;13.84;39.78
77889;BME280;67082;41.704;44.768;2024-03-29T06:52:48;96035.31;;;13.93;40.54
77889;BME280;67082;41.704;44.768;2024-03-29T06:55:17;96027.59;;;13.97;40.30
77889;BME280;67082;41.704;44.768;2024-03-29T06:57:48;96018.72;;;14.17;40.12
77889;BME280;67082;41.704;44.768;2024-03-29T07:00:16;96030.06;;;14.22;40.05
77889;BME280;67082;41.704;44.768;2024-03-29T07:02:43;96028.81;;;14.32;40.55
77889;BME280;67082;41.704;44.768;2024-03-29T07:05:11;96019.94;;;14.43;40.06
77889;BME280;67082;41.704;44.768;2024-03-29T07:07:38;96020.13;;;14.39;39.79
77889;BME280;67082;41.704;44.768;2024-03-29T07:10:07;96016.81;;;14.50;40.42
77889;BME280;67082;41.704;44.768;2024-03-29T07:12:34;96004.66;;;14.29;39.89
77889;BME280;67082;41.704;44.768;2024-03-29T07:15:01;96017.31;;;14.39;39.71
77889;BME280;67082;41.704;44.768;2024-03-29T07:17:30;96010.97;;;14.39;38.92
77889;BME280;67082;41.704;44.768;2024-03-29T07:19:58;96002.13;;;14.49;38.62
77889;BME280;67082;41.704;44.768;2024-03-29T07:22:24;96006.56;;;14.56;38.80
77889;BME280;67082;41.704;44.768;2024-03-29T07:24:54;96001.31;;;14.58;38.20
77889;BME280;67082;41.704;44.768;2024-03-29T07:27:21;95994.88;;;14.75;38.01
77889;BME280;67082;41.704;44.768;2024-03-29T07:29:48;95994.53;;;14.82;37.57
77889;BME280;67082;41.704;44.768;2024-03-29T07:32:16;95993.59;;;14.85;37.02
77889;BME280;67082;41.704;44.768;2024-03-29T07:34:43;95985.34;;;14.91;36.92
77889;BME280;67082;41.704;44.768;2024-03-29T07:37:10;95987.72;;;14.83;37.13
77889;BME280;67082;41.704;44.768;2024-03-29T07:39:42;95977.50;;;14.80;36.91
77889;BME280;67082;41.704;44.768;2024-03-29T07:42:08;95986.78;;;14.86;37.07
77889;BME280;67082;41.704;44.768;2024-03-29T07:44:36;95983.78;;;14.99;36.80
77889;BME280;67082;41.704;44.768;2024-03-29T07:47:03;95975.59;;;14.95;36.26
77889;BME280;67082;41.704;44.768;2024-03-29T07:49:30;95982.19;;;15.07;36.64
77889;BME280;67082;41.704;44.768;2024-03-29T07:51:57;95966.47;;;15.18;36.28
77889;BME280;67082;41.704;44.768;2024-03-29T07:54:26;95971.00;;;15.07;36.17
77889;BME280;67082;41.704;44.768;2024-03-29T07:56:53;95962.16;;;15.08;36.01
77889;BME280;67082;41.704;44.768;2024-03-29T07:59:20;95967.03;;;15.22;36.32
77889;BME280;67082;41.704;44.768;2024-03-29T08:01:48;95975.69;;;15.33;35.28
77889;BME280;67082;41.704;44.768;2024-03-29T08:04:15;95966.84;;;15.26;35.80
77889;BME280;67082;41.704;44.768;2024-03-29T08:06:42;95963.41;;;15.31;35.86
77889;BME280;67082;41.704;44.768;2024-03-29T08:09:10;95960.41;;;15.43;35.52
77889;BME280;67082;41.704;44.768;2024-03-29T08:11:37;95962.16;;;15.55;35.43
77889;BME280;67082;41.704;44.768;2024-03-29T08:14:06;95952.34;;;15.60;35.34
77889;BME280;67082;41.704;44.768;2024-03-29T08:16:34;95953.72;;;15.64;34.83
77889;BME280;67082;41.704;44.768;2024-03-29T08:19:01;95956.16;;;15.71;35.18
77889;BME280;67082;41.704;44.768;2024-03-29T08:21:29;95957.31;;;15.79;35.58
77889;BME280;67082;41.704;44.768;2024-03-29T08:23:56;95955.88;;;15.84;34.97
77889;BME280;67082;41.704;44.768;2024-03-29T08:26:24;95952.41;;;15.89;34.67
77889;BME280;67082;41.704;44.768;2024-03-29T08:28:51;95953.91;;;15.75;34.42
77889;BME280;67082;41.704;44.768;2024-03-29T08:31:18;95948.34;;;15.90;34.58
77889;BME280;67082;41.704;44.768;2024-03-29T08:33:48;95945.69;;;15.95;35.08
77889;BME280;67082;41.704;44.768;2024-03-29T08:36:16;95948.19;;;15.93;34.86
77889;BME280;67082;41.704;44.768;2024-03-29T08:38:43;95942.78;;;16.04;35.04
77889;BME280;67082;41.704;44.768;2024-03-29T08:41:13;95952.34;;;16.12;34.83
77889;BME280;67082;41.704;44.768;2024-03-29T08:43:40;95951.19;;;16.19;34.78
77889;BME280;67082;41.704;44.768;2024-03-29T08:46:07;95938.56;;;16.09;34.95
77889;BME280;67082;41.704;44.768;2024-03-29T08:48:36;95939.03;;;16.07;35.43
77889;BME280;67082;41.704;44.768;2024-03-29T08:51:08;95930.66;;;16.07;35.46
77889;BME280;67082;41.704;44.768;2024-03-29T08:53:36;95929.59;;;16.19;35.52
77889;BME280;67082;41.704;44.768;2024-03-29T08:56:03;95926.69;;;16.28;35.47
77889;BME280;67082;41.704;44.768;2024-03-29T08:58:30;95928.50;;;16.31;35.23
77889;BME280;67082;41.704;44.768;2024-03-29T09:00:57;95921.59;;;16.27;35.53
77889;BME280;67082;41.704;44.768;2024-03-29T09:03:27;95924.69;;;16.43;35.91
77889;BME280;67082;41.704;44.768;2024-03-29T09:05:54;95916.09;;;16.47;35.67
77889;BME280;67082;41.704;44.768;2024-03-29T09:08:21;95920.34;;;16.42;35.96
77889;BME280;67082;41.704;44.768;2024-03-29T09:10:48;95921.00;;;16.52;35.78
77889;BME280;67082;41.704;44.768;2024-03-29T09:13:15;95908.91;;;16.60;35.46
77889;BME280;67082;41.704;44.768;2024-03-29T09:15:42;95899.56;;;16.63;35.01
77889;BME280;67082;41.704;44.768;2024-03-29T09:21:12;95877.19;;;16.63;34.50
77889;BME280;67082;41.704;44.768;2024-03-29T09:23:45;95894.91;;;16.75;34.30
77889;BME280;67082;41.704;44.768;2024-03-29T09:26:15;95886.03;;;16.76;34.28
77889;BME280;67082;41.704;44.768;2024-03-29T09:28:48;95883.44;;;16.73;33.99
77889;BME280;67082;41.704;44.768;2024-03-29T09:31:18;95875.78;;;16.73;34.04
77889;BME280;67082;41.704;44.768;2024-03-29T09:33:49;95868.81;;;16.83;34.33
77889;BME280;67082;41.704;44.768;2024-03-29T09:36:23;95869.97;;;16.91;34.79
77889;BME280;67082;41.704;44.768;2024-03-29T09:38:51;95875.13;;;16.98;35.27
77889;BME280;67082;41.704;44.768;2024-03-29T09:41:19;95870.09;;;17.02;34.48
77889;BME280;67082;41.704;44.768;2024-03-29T09:43:48;95863.72;;;17.02;34.44
77889;BME280;67082;41.704;44.768;2024-03-29T09:46:16;95853.78;;;17.01;34.41
77889;BME280;67082;41.704;44.768;2024-03-29T09:48:44;95858.56;;;16.95;34.28
77889;BME280;67082;41.704;44.768;2024-03-29T09:51:18;95852.88;;;17.09;34.58
77889;BME280;67082;41.704;44.768;2024-03-29T09:53:47;95853.03;;;17.20;35.27
77889;BME280;67082;41.704;44.768;2024-03-29T09:56:15;95856.22;;;17.33;35.38
77889;BME280;67082;41.704;44.768;2024-03-29T09:58:42;95839.41;;;17.33;35.05
77889;BME280;67082;41.704;44.768;2024-03-29T10:01:09;95845.25;;;17.30;34.58
77889;BME280;67082;41.704;44.768;2024-03-29T10:03:42;95840.19;;;17.34;34.43
77889;BME280;67082;41.704;44.768;2024-03-29T10:06:09;95840.53;;;17.41;34.49
77889;BME280;67082;41.704;44.768;2024-03-29T10:08:40;95838.34;;;17.51;34.43
77889;BME280;67082;41.704;44.768;2024-03-29T10:11:08;95839.91;;;17.52;34.40
77889;BME280;67082;41.704;44.768;2024-03-29T10:13:36;95825.94;;;17.57;34.31
77889;BME280;67082;41.704;44.768;2024-03-29T10:16:04;95824.41;;;17.56;34.30
77889;BME280;67082;41.704;44.768;2024-03-29T10:18:31;95819.16;;;17.64;34.04
77889;BME280;67082;41.704;44.768;2024-03-29T10:21:03;95819.47;;;17.71;34.12
77889;BME280;67082;41.704;44.768;2024-03-29T10:23:32;95819.53;;;17.77;33.79
77889;BME280;67082;41.704;44.768;2024-03-29T10:26:02;95816.22;;;17.78;33.40
77889;BME280;67082;41.704;44.768;2024-03-29T10:28:34;95813.94;;;17.82;33.75
77889;BME280;67082;41.704;44.768;2024-03-29T10:31:03;95814.69;;;17.77;33.24
77889;BME280;67082;41.704;44.768;2024-03-29T10:33:31;95809.34;;;17.79;34.01
77889;BME280;67082;41.704;44.768;2024-03-29T10:36:00;95802.00;;;17.82;34.40
77889;BME280;67082;41.704;44.768;2024-03-29T10:38:27;95800.75;;;17.88;34.02
77889;BME280;67082;41.704;44.768;2024-03-29T10:40:54;95797.78;;;17.97;33.89
77889;BME280;67082;41.704;44.768;2024-03-29T10:43:23;95798.34;;;18.01;33.07
77889;BME280;67082;41.704;44.768;2024-03-29T10:45:51;95792.44;;;17.99;32.94
77889;BME280;67082;41.704;44.768;2024-03-29T10:48:24;95792.50;;;18.05;33.40
77889;BME280;67082;41.704;44.768;2024-03-29T10:51:00;95797.88;;;18.08;33.58
77889;BME280;67082;41.704;44.768;2024-03-29T10:59:23;95789.00;;;18.15;33.29
77889;BME280;67082;41.704;44.768;2024-03-29T11:02:31;95779.09;;;18.20;33.37
77889;BME280;67082;41.704;44.768;2024-03-29T11:05:25;95760.16;;;18.09;32.69
77889;BME280;67082;41.704;44.768;2024-03-29T11:13:09;95778.94;;;18.34;32.30
77889;BME280;67082;41.704;44.768;2024-03-29T11:15:41;95777.50;;;18.44;32.12
77889;BME280;67082;41.704;44.768;2024-03-29T11:18:09;95776.53;;;18.53;32.37
77889;BME280;67082;41.704;44.768;2024-03-29T11:20:37;95773.78;;;18.58;31.48
77889;BME280;67082;41.704;44.768;2024-03-29T11:23:09;95777.63;;;18.66;31.37
77889;BME280;67082;41.704;44.768;2024-03-29T11:25:45;95776.41;;;18.73;31.31
77889;BME280;67082;41.704;44.768;2024-03-29T11:28:14;95767.97;;;18.73;30.73
77889;BME280;67082;41.704;44.768;2024-03-29T11:30:45;95760.03;;;18.71;30.63
77889;BME280;67082;41.704;44.768;2024-03-29T11:33:35;95758.81;;;18.78;30.72
77889;BME280;67082;41.704;44.768;2024-03-29T11:36:19;95762.63;;;18.80;29.83
77889;BME280;67082;41.704;44.768;2024-03-29T11:38:56;95764.44;;;18.83;29.72
77889;BME280;67082;41.704;44.768;2024-03-29T11:41:26;95767.78;;;18.87;30.41
77889;BME280;67082;41.704;44.768;2024-03-29T11:43:55;95761.63;;;18.89;31.21
77889;BME280;67082;41.704;44.768;2024-03-29T11:46:24;95764.69;;;18.85;30.25
77889;BME280;67082;41.704;44.768;2024-03-29T11:48:51;95752.38;;;18.72;30.17
77889;BME280;67082;41.704;44.768;2024-03-29T11:51:21;95761.63;;;18.78;30.59
77889;BME280;67082;41.704;44.768;2024-03-29T11:53:51;95756.25;;;18.80;30.62
77889;BME280;67082;41.704;44.768;2024-03-29T11:56:20;95750.88;;;18.76;31.01
77889;BME280;67082;41.704;44.768;2024-03-29T11:58:48;95753.94;;;18.78;30.13
77889;BME280;67082;41.704;44.768;2024-03-29T12:01:16;95751.19;;;18.84;30.60
77889;BME280;67082;41.704;44.768;2024-03-29T12:03:43;95756.31;;;18.91;30.62
77889;BME280;67082;41.704;44.768;2024-03-29T12:06:14;95751.19;;;18.89;31.02
77889;BME280;67082;41.704;44.768;2024-03-29T12:08:43;95743.00;;;18.86;30.86
77889;BME280;67082;41.704;44.768;2024-03-29T12:11:13;95749.63;;;18.83;31.63
77889;BME280;67082;41.704;44.768;2024-03-29T12:13:40;95749.88;;;18.79;31.20
77889;BME280;67082;41.704;44.768;2024-03-29T12:16:08;95754.19;;;18.80;31.90
77889;BME280;67082;41.704;44.768;2024-03-29T12:18:35;95756.25;;;18.80;32.11
77889;BME280;67082;41.704;44.768;2024-03-29T12:21:03;95751.94;;;18.84;32.16
77889;BME280;67082;41.704;44.768;2024-03-29T12:23:30;95747.38;;;18.92;32.09
77889;BME280;67082;41.704;44.768;2024-03-29T12:25:58;95748.38;;;18.89;32.42
77889;BME280;67082;41.704;44.768;2024-03-29T12:28:26;95754.25;;;18.86;32.57
77889;BME280;67082;41.704;44.768;2024-03-29T12:30:56;95748.13;;;18.93;33.01
77889;BME280;67082;41.704;44.768;2024-03-29T12:33:25;95748.91;;;18.93;33.26
77889;BME280;67082;41.704;44.768;2024-03-29T12:35:53;95748.66;;;18.97;32.75
77889;BME280;67082;41.704;44.768;2024-03-29T12:38:22;95745.81;;;18.91;33.11
77889;BME280;67082;41.704;44.768;2024-03-29T12:40:51;95743.31;;;18.93;33.44
77889;BME280;67082;41.704;44.768;2024-03-29T12:43:22;95746.91;;;18.99;34.04
77889;BME280;67082;41.704;44.768;2024-03-29T12:45:51;95740.50;;;18.99;34.44
77889;BME280;67082;41.704;44.768;2024-03-29T12:48:20;95735.13;;;18.95;34.06
77889;BME280;67082;41.704;44.768;2024-03-29T12:50:48;95737.69;;;18.93;34.40
77889;BME280;67082;41.704;44.768;2024-03-29T12:53:16;95734.88;;;18.93;34.49
77889;BME280;67082;41.704;44.768;2024-03-29T12:55:45;95729.75;;;18.92;34.69
77889;BME280;67082;41.704;44.768;2024-03-29T12:58:13;95732.28;;;18.84;34.83
77889;BME280;67082;41.704;44.768;2024-03-29T13:00:43;95727.88;;;18.72;35.01
77889;BME280;67082;41.704;44.768;2024-03-29T13:03:13;95726.91;;;18.75;35.23
77889;BME280;67082;41.704;44.768;2024-03-29T13:05:41;95724.59;;;18.79;35.41
77889;BME280;67082;41.704;44.768;2024-03-29T13:08:13;95726.63;;;18.73;34.97
77889;BME280;67082;41.704;44.768;2024-03-29T13:10:43;95727.34;;;18.68;35.38
77889;BME280;67082;41.704;44.768;2024-03-29T13:13:11;95724.03;;;18.64;35.38